sensor_id;sensor_type;location;lat;lon;timestamp;P1;durP1;ratioP1;P2;durP2;ratioP2
7833;SDS011;3962;42.696;23.354;2023-02-02T00:01:11;7.83;;;5.10;;
7833;SDS011;3962;42.696;23.354;2023-02-02T00:03:40;8.60;;;4.63;;
7833;SDS011;3962;42.696;23.354;2023-02-02T00:06:06;7.30;;;4.90;;
7833;SDS011;3962;42.696;23.354;2023-02-02T00:08:34;6.73;;;4.73;;
7833;SDS011;3962;42.696;23.354;2023-02-02T00:11:02;11.73;;;5.57;;
7833;SDS011;3962;42.696;23.354;2023-02-02T00:13:30;9.20;;;4.40;;
7833;SDS011;3962;42.696;23.354;2023-02-02T00:15:57;7.90;;;5.53;;
7833;SDS011;3962;42.696;23.354;2023-02-02T00:18:24;9.17;;;5.63;;
7833;SDS011;3962;42.696;23.354;2023-02-02T00:20:52;12.47;;;6.17;;
7833;SDS011;3962;42.696;23.354;2023-02-02T00:23:18;7.97;;;5.50;;
7833;SDS011;3962;42.696;23.354;2023-02-02T00:25:48;8.43;;;5.90;;
7833;SDS011;3962;42.696;23.354;2023-02-02T00:28:15;10.53;;;5.27;;
7833;SDS011;3962;42.696;23.354;2023-02-02T00:30:42;10.47;;;4.87;;
7833;SDS011;3962;42.696;23.354;2023-02-02T00:33:09;10.60;;;4.87;;
7833;SDS011;3962;42.696;23.354;2023-02-02T00:35:38;8.87;;;5.37;;
7833;SDS011;3962;42.696;23.354;2023-02-02T00:38:08;9.43;;;5.40;;
7833;SDS011;3962;42.696;23.354;2023-02-02T00:40:35;8.00;;;4.93;;
7833;SDS011;3962;42.696;23.354;2023-02-02T00:43:02;8.97;;;4.33;;
7833;SDS011;3962;42.696;23.354;2023-02-02T00:45:29;6.27;;;4.10;;
7833;SDS011;3962;42.696;23.354;2023-02-02T00:47:55;6.23;;;4.37;;
7833;SDS011;3962;42.696;23.354;2023-02-02T00:50:22;9.03;;;4.53;;
7833;SDS011;3962;42.696;23.354;2023-02-02T00:52:49;11.53;;;5.00;;
7833;SDS011;3962;42.696;23.354;2023-02-02T00:55:17;7.77;;;4.73;;
7833;SDS011;3962;42.696;23.354;2023-02-02T00:57:44;13.23;;;4.77;;
7833;SDS011;3962;42.696;23.354;2023-02-02T01:00:13;9.63;;;4.70;;
7833;SDS011;3962;42.696;23.354;2023-02-02T01:02:41;9.83;;;5.20;;
7833;SDS011;3962;42.696;23.354;2023-02-02T01:05:09;9.30;;;5.77;;
7833;SDS011;3962;42.696;23.354;2023-02-02T01:07:36;11.27;;;5.53;;
7833;SDS011;3962;42.696;23.354;2023-02-02T01:10:03;11.37;;;5.70;;
7833;SDS011;3962;42.696;23.354;2023-02-02T01:12:33;10.33;;;6.07;;
7833;SDS011;3962;42.696;23.354;2023-02-02T01:15:00;12.97;;;7.53;;
7833;SDS011;3962;42.696;23.354;2023-02-02T01:17:27;14.33;;;7.97;;
7833;SDS011;3962;42.696;23.354;2023-02-02T01:19:54;14.07;;;8.00;;
7833;SDS011;3962;42.696;23.354;2023-02-02T01:22:21;16.03;;;8.37;;
7833;SDS011;3962;42.696;23.354;2023-02-02T01:24:48;11.53;;;7.77;;
7833;SDS011;3962;42.696;23.354;2023-02-02T01:27:14;15.17;;;7.83;;
7833;SDS011;3962;42.696;23.354;2023-02-02T01:29:43;11.87;;;6.97;;
7833;SDS011;3962;42.696;23.354;2023-02-02T01:32:10;10.70;;;6.30;;
7833;SDS011;3962;42.696;23.354;2023-02-02T01:34:37;9.80;;;6.17;;
7833;SDS011;3962;42.696;23.354;2023-02-02T01:37:05;10.73;;;6.00;;
7833;SDS011;3962;42.696;23.354;2023-02-02T01:39:32;9.53;;;5.60;;
7833;SDS011;3962;42.696;23.354;2023-02-02T01:41:59;12.53;;;6.77;;
7833;SDS011;3962;42.696;23.354;2023-02-02T01:47:43;12.87;;;7.60;;
7833;SDS011;3962;42.696;23.354;2023-02-02T01:50:16;15.47;;;7.37;;
7833;SDS011;3962;42.696;23.354;2023-02-02T01:52:47;10.70;;;7.03;;
7833;SDS011;3962;42.696;23.354;2023-02-02T01:55:17;11.77;;;7.63;;
7833;SDS011;3962;42.696;23.354;2023-02-02T01:57:48;10.73;;;6.73;;
7833;SDS011;3962;42.696;23.354;2023-02-02T02:00:19;11.53;;;6.30;;
7833;SDS011;3962;42.696;23.354;2023-02-02T02:02:50;9.37;;;5.97;;
7833;SDS011;3962;42.696;23.354;2023-02-02T02:05:20;10.00;;;5.37;;
7833;SDS011;3962;42.696;23.354;2023-02-02T02:07:50;8.60;;;5.90;;
7833;SDS011;3962;42.696;23.354;2023-02-02T02:10:20;11.40;;;5.97;;
7833;SDS011;3962;42.696;23.354;2023-02-02T02:12:47;8.13;;;5.77;;
7833;SDS011;3962;42.696;23.354;2023-02-02T02:15:14;7.57;;;5.70;;
7833;SDS011;3962;42.696;23.354;2023-02-02T02:18:02;8.47;;;5.57;;
7833;SDS011;3962;42.696;23.354;2023-02-02T02:21:00;10.70;;;5.63;;
7833;SDS011;3962;42.696;23.354;2023-02-02T02:24:31;8.80;;;5.43;;
7833;SDS011;3962;42.696;23.354;2023-02-02T02:27:45;9.57;;;5.83;;
7833;SDS011;3962;42.696;23.354;2023-02-02T02:30:42;11.07;;;6.05;;
7833;SDS011;3962;42.696;23.354;2023-02-02T02:33:28;10.23;;;6.33;;
7833;SDS011;3962;42.696;23.354;2023-02-02T02:36:04;10.90;;;6.27;;
7833;SDS011;3962;42.696;23.354;2023-02-02T02:38:36;7.17;;;5.30;;
7833;SDS011;3962;42.696;23.354;2023-02-02T02:41:11;8.37;;;5.47;;
7833;SDS011;3962;42.696;23.354;2023-02-02T02:43:42;9.43;;;5.90;;
7833;SDS011;3962;42.696;23.354;2023-02-02T02:46:14;10.10;;;6.00;;
7833;SDS011;3962;42.696;23.354;2023-02-02T02:48:43;10.30;;;6.10;;
7833;SDS011;3962;42.696;23.354;2023-02-02T02:54:06;10.57;;;6.03;;
7833;SDS011;3962;42.696;23.354;2023-02-02T02:56:34;8.53;;;5.57;;
7833;SDS011;3962;42.696;23.354;2023-02-02T02:59:13;7.97;;;5.73;;
7833;SDS011;3962;42.696;23.354;2023-02-02T03:01:46;6.57;;;5.33;;
7833;SDS011;3962;42.696;23.354;2023-02-02T03:04:23;9.17;;;5.60;;
7833;SDS011;3962;42.696;23.354;2023-02-02T03:06:59;9.77;;;6.00;;
7833;SDS011;3962;42.696;23.354;2023-02-02T03:09:31;8.43;;;5.10;;
7833;SDS011;3962;42.696;23.354;2023-02-02T03:12:03;7.40;;;5.43;;
7833;SDS011;3962;42.696;23.354;2023-02-02T03:14:33;9.93;;;5.47;;
7833;SDS011;3962;42.696;23.354;2023-02-02T03:17:00;8.17;;;5.40;;
7833;SDS011;3962;42.696;23.354;2023-02-02T03:19:28;9.73;;;5.67;;
7833;SDS011;3962;42.696;23.354;2023-02-02T03:21:55;7.37;;;5.13;;
7833;SDS011;3962;42.696;23.354;2023-02-02T03:24:22;12.33;;;6.03;;
7833;SDS011;3962;42.696;23.354;2023-02-02T03:26:49;7.73;;;5.53;;
7833;SDS011;3962;42.696;23.354;2023-02-02T03:29:16;6.97;;;5.33;;
7833;SDS011;3962;42.696;23.354;2023-02-02T03:31:44;7.50;;;5.40;;
7833;SDS011;3962;42.696;23.354;2023-02-02T03:34:12;10.53;;;5.70;;
7833;SDS011;3962;42.696;23.354;2023-02-02T03:36:40;7.73;;;5.73;;
7833;SDS011;3962;42.696;23.354;2023-02-02T03:39:06;11.30;;;6.10;;
7833;SDS011;3962;42.696;23.354;2023-02-02T03:41:33;8.63;;;6.13;;
7833;SDS011;3962;42.696;23.354;2023-02-02T03:44:00;9.70;;;5.97;;
7833;SDS011;3962;42.696;23.354;2023-02-02T03:46:27;8.50;;;6.13;;
7833;SDS011;3962;42.696;23.354;2023-02-02T03:48:53;10.82;;;7.00;;
7833;SDS011;3962;42.696;23.354;2023-02-02T03:51:20;8.17;;;5.80;;
7833;SDS011;3962;42.696;23.354;2023-02-02T03:53:48;12.10;;;5.97;;
7833;SDS011;3962;42.696;23.354;2023-02-02T03:56:15;8.97;;;6.10;;
7833;SDS011;3962;42.696;23.354;2023-02-02T03:58:43;10.50;;;6.77;;
7833;SDS011;3962;42.696;23.354;2023-02-02T04:01:11;9.90;;;6.83;;
7833;SDS011;3962;42.696;23.354;2023-02-02T04:03:39;10.17;;;6.57;;
7833;SDS011;3962;42.696;23.354;2023-02-02T04:06:06;9.70;;;6.67;;
7833;SDS011;3962;42.696;23.354;2023-02-02T04:08:33;7.17;;;6.27;;
7833;SDS011;3962;42.696;23.354;2023-02-02T04:11:01;8.27;;;6.93;;
7833;SDS011;3962;42.696;23.354;2023-02-02T04:13:28;10.73;;;7.03;;
7833;SDS011;3962;42.696;23.354;2023-02-02T04:15:55;12.57;;;7.30;;
7833;SDS011;3962;42.696;23.354;2023-02-02T04:18:23;10.57;;;7.13;;
7833;SDS011;3962;42.696;23.354;2023-02-02T04:20:54;12.93;;;7.03;;
7833;SDS011;3962;42.696;23.354;2023-02-02T04:23:21;10.57;;;6.70;;
7833;SDS011;3962;42.696;23.354;2023-02-02T04:25:48;12.13;;;7.10;;
7833;SDS011;3962;42.696;23.354;2023-02-02T04:28:17;12.30;;;7.07;;
7833;SDS011;3962;42.696;23.354;2023-02-02T04:30:44;12.50;;;7.10;;
7833;SDS011;3962;42.696;23.354;2023-02-02T04:33:11;8.17;;;5.90;;
7833;SDS011;3962;42.696;23.354;2023-02-02T04:35:37;9.67;;;6.50;;
7833;SDS011;3962;42.696;23.354;2023-02-02T04:38:04;9.97;;;6.53;;
7833;SDS011;3962;42.696;23.354;2023-02-02T04:40:31;11.60;;;6.83;;
7833;SDS011;3962;42.696;23.354;2023-02-02T04:42:58;13.80;;;6.63;;
7833;SDS011;3962;42.696;23.354;2023-02-02T04:45:26;10.33;;;6.33;;
7833;SDS011;3962;42.696;23.354;2023-02-02T04:47:53;8.23;;;6.37;;
7833;SDS011;3962;42.696;23.354;2023-02-02T04:50:19;8.23;;;6.80;;
7833;SDS011;3962;42.696;23.354;2023-02-02T04:52:46;13.93;;;7.00;;
7833;SDS011;3962;42.696;23.354;2023-02-02T04:55:13;13.57;;;6.87;;
7833;SDS011;3962;42.696;23.354;2023-02-02T04:57:40;13.07;;;7.33;;
7833;SDS011;3962;42.696;23.354;2023-02-02T05:00:08;9.27;;;6.90;;
7833;SDS011;3962;42.696;23.354;2023-02-02T05:02:38;13.13;;;7.07;;
7833;SDS011;3962;42.696;23.354;2023-02-02T05:05:06;10.30;;;6.90;;
7833;SDS011;3962;42.696;23.354;2023-02-02T05:07:35;13.07;;;6.90;;
7833;SDS011;3962;42.696;23.354;2023-02-02T05:10:04;11.67;;;6.80;;
7833;SDS011;3962;42.696;23.354;2023-02-02T05:12:32;12.10;;;8.43;;
7833;SDS011;3962;42.696;23.354;2023-02-02T05:14:59;11.33;;;7.50;;
7833;SDS011;3962;42.696;23.354;2023-02-02T05:17:27;14.43;;;7.43;;
7833;SDS011;3962;42.696;23.354;2023-02-02T05:19:56;10.63;;;7.10;;
7833;SDS011;3962;42.696;23.354;2023-02-02T05:22:23;14.43;;;7.40;;
7833;SDS011;3962;42.696;23.354;2023-02-02T05:24:50;15.60;;;8.13;;
7833;SDS011;3962;42.696;23.354;2023-02-02T05:27:16;11.97;;;8.13;;
7833;SDS011;3962;42.696;23.354;2023-02-02T05:29:43;14.37;;;9.20;;
7833;SDS011;3962;42.696;23.354;2023-02-02T05:32:12;14.40;;;8.70;;
7833;SDS011;3962;42.696;23.354;2023-02-02T05:34:39;14.57;;;8.57;;
7833;SDS011;3962;42.696;23.354;2023-02-02T05:37:07;13.70;;;7.50;;
7833;SDS011;3962;42.696;23.354;2023-02-02T05:39:34;11.97;;;8.37;;
7833;SDS011;3962;42.696;23.354;2023-02-02T05:42:00;16.03;;;9.50;;
7833;SDS011;3962;42.696;23.354;2023-02-02T05:44:27;23.77;;;13.00;;
7833;SDS011;3962;42.696;23.354;2023-02-02T05:46:54;18.50;;;10.53;;
7833;SDS011;3962;42.696;23.354;2023-02-02T05:49:21;12.77;;;8.20;;
7833;SDS011;3962;42.696;23.354;2023-02-02T05:51:48;13.90;;;8.60;;
7833;SDS011;3962;42.696;23.354;2023-02-02T05:54:19;16.37;;;8.63;;
7833;SDS011;3962;42.696;23.354;2023-02-02T05:56:47;18.13;;;9.60;;
7833;SDS011;3962;42.696;23.354;2023-02-02T05:59:14;13.67;;;8.43;;
7833;SDS011;3962;42.696;23.354;2023-02-02T06:01:41;15.50;;;10.10;;
7833;SDS011;3962;42.696;23.354;2023-02-02T06:04:08;21.27;;;13.77;;
7833;SDS011;3962;42.696;23.354;2023-02-02T06:06:35;24.47;;;14.87;;
7833;SDS011;3962;42.696;23.354;2023-02-02T06:09:03;21.97;;;14.23;;
7833;SDS011;3962;42.696;23.354;2023-02-02T06:11:31;23.53;;;12.43;;
7833;SDS011;3962;42.696;23.354;2023-02-02T06:13:58;18.57;;;10.90;;
7833;SDS011;3962;42.696;23.354;2023-02-02T06:16:25;23.03;;;13.83;;
7833;SDS011;3962;42.696;23.354;2023-02-02T06:18:52;18.67;;;10.67;;
7833;SDS011;3962;42.696;23.354;2023-02-02T06:21:19;17.10;;;10.20;;
7833;SDS011;3962;42.696;23.354;2023-02-02T06:23:47;17.07;;;10.10;;
7833;SDS011;3962;42.696;23.354;2023-02-02T06:26:14;15.03;;;9.67;;
7833;SDS011;3962;42.696;23.354;2023-02-02T06:28:46;14.60;;;9.47;;
7833;SDS011;3962;42.696;23.354;2023-02-02T06:31:14;16.03;;;9.93;;
7833;SDS011;3962;42.696;23.354;2023-02-02T06:33:43;13.63;;;8.57;;
7833;SDS011;3962;42.696;23.354;2023-02-02T06:36:10;16.93;;;8.77;;
7833;SDS011;3962;42.696;23.354;2023-02-02T06:38:37;16.17;;;9.00;;
7833;SDS011;3962;42.696;23.354;2023-02-02T06:41:04;12.40;;;8.77;;
7833;SDS011;3962;42.696;23.354;2023-02-02T06:43:32;14.17;;;9.50;;
7833;SDS011;3962;42.696;23.354;2023-02-02T06:46:00;18.77;;;11.80;;
7833;SDS011;3962;42.696;23.354;2023-02-02T06:48:27;20.77;;;11.97;;
7833;SDS011;3962;42.696;23.354;2023-02-02T06:50:56;26.60;;;13.97;;
7833;SDS011;3962;42.696;23.354;2023-02-02T06:53:24;19.87;;;11.47;;
7833;SDS011;3962;42.696;23.354;2023-02-02T06:55:51;26.27;;;12.70;;
7833;SDS011;3962;42.696;23.354;2023-02-02T06:58:19;25.53;;;13.20;;
7833;SDS011;3962;42.696;23.354;2023-02-02T07:00:45;30.03;;;15.00;;
7833;SDS011;3962;42.696;23.354;2023-02-02T07:03:14;29.03;;;16.37;;
7833;SDS011;3962;42.696;23.354;2023-02-02T07:05:41;30.77;;;17.07;;
7833;SDS011;3962;42.696;23.354;2023-02-02T07:08:07;41.90;;;16.87;;
7833;SDS011;3962;42.696;23.354;2023-02-02T07:10:35;23.87;;;14.40;;
7833;SDS011;3962;42.696;23.354;2023-02-02T07:13:02;25.57;;;14.30;;
7833;SDS011;3962;42.696;23.354;2023-02-02T07:15:30;28.67;;;14.37;;
7833;SDS011;3962;42.696;23.354;2023-02-02T07:17:57;29.70;;;15.23;;
7833;SDS011;3962;42.696;23.354;2023-02-02T07:20:26;30.10;;;15.30;;
7833;SDS011;3962;42.696;23.354;2023-02-02T07:22:53;29.50;;;14.70;;
7833;SDS011;3962;42.696;23.354;2023-02-02T07:25:20;30.13;;;14.63;;
7833;SDS011;3962;42.696;23.354;2023-02-02T07:27:50;31.67;;;16.60;;
7833;SDS011;3962;42.696;23.354;2023-02-02T07:30:18;34.00;;;16.03;;
7833;SDS011;3962;42.696;23.354;2023-02-02T07:32:45;34.17;;;16.93;;
7833;SDS011;3962;42.696;23.354;2023-02-02T07:35:12;39.50;;;16.97;;
7833;SDS011;3962;42.696;23.354;2023-02-02T07:37:41;40.43;;;17.73;;
7833;SDS011;3962;42.696;23.354;2023-02-02T07:40:08;42.00;;;16.70;;
7833;SDS011;3962;42.696;23.354;2023-02-02T07:42:36;25.67;;;13.73;;
7833;SDS011;3962;42.696;23.354;2023-02-02T07:45:03;30.83;;;14.03;;
7833;SDS011;3962;42.696;23.354;2023-02-02T07:47:30;29.03;;;15.83;;
7833;SDS011;3962;42.696;23.354;2023-02-02T07:49:57;24.30;;;14.60;;
7833;SDS011;3962;42.696;23.354;2023-02-02T07:52:24;25.23;;;15.87;;
7833;SDS011;3962;42.696;23.354;2023-02-02T07:54:52;33.37;;;17.80;;
7833;SDS011;3962;42.696;23.354;2023-02-02T07:57:19;41.47;;;16.27;;
7833;SDS011;3962;42.696;23.354;2023-02-02T07:59:47;37.23;;;15.70;;
7833;SDS011;3962;42.696;23.354;2023-02-02T08:02:14;33.67;;;12.77;;
7833;SDS011;3962;42.696;23.354;2023-02-02T08:04:41;32.47;;;13.83;;
7833;SDS011;3962;42.696;23.354;2023-02-02T08:07:08;36.17;;;13.10;;
7833;SDS011;3962;42.696;23.354;2023-02-02T08:09:34;25.47;;;11.47;;
7833;SDS011;3962;42.696;23.354;2023-02-02T08:12:04;30.40;;;12.53;;
7833;SDS011;3962;42.696;23.354;2023-02-02T08:14:31;35.20;;;12.70;;
7833;SDS011;3962;42.696;23.354;2023-02-02T08:16:57;22.10;;;14.30;;
7833;SDS011;3962;42.696;23.354;2023-02-02T08:19:24;27.73;;;12.37;;
7833;SDS011;3962;42.696;23.354;2023-02-02T08:21:51;24.27;;;11.73;;
7833;SDS011;3962;42.696;23.354;2023-02-02T08:24:18;24.43;;;12.17;;
7833;SDS011;3962;42.696;23.354;2023-02-02T08:26:45;17.57;;;10.90;;
7833;SDS011;3962;42.696;23.354;2023-02-02T08:29:13;18.73;;;10.47;;
7833;SDS011;3962;42.696;23.354;2023-02-02T08:31:41;25.83;;;13.00;;
7833;SDS011;3962;42.696;23.354;2023-02-02T08:34:09;26.10;;;9.87;;
7833;SDS011;3962;42.696;23.354;2023-02-02T08:36:38;24.97;;;10.97;;
7833;SDS011;3962;42.696;23.354;2023-02-02T08:39:07;19.10;;;10.70;;
7833;SDS011;3962;42.696;23.354;2023-02-02T08:41:36;21.00;;;10.70;;
7833;SDS011;3962;42.696;23.354;2023-02-02T08:44:04;17.13;;;9.90;;
7833;SDS011;3962;42.696;23.354;2023-02-02T08:46:33;21.57;;;9.63;;
7833;SDS011;3962;42.696;23.354;2023-02-02T08:49:00;13.77;;;8.07;;
7833;SDS011;3962;42.696;23.354;2023-02-02T08:51:27;11.30;;;6.23;;
7833;SDS011;3962;42.696;23.354;2023-02-02T08:53:54;11.13;;;6.20;;
7833;SDS011;3962;42.696;23.354;2023-02-02T08:56:21;15.23;;;5.80;;
7833;SDS011;3962;42.696;23.354;2023-02-02T08:58:49;14.17;;;6.17;;
7833;SDS011;3962;42.696;23.354;2023-02-02T09:01:17;11.03;;;6.80;;
7833;SDS011;3962;42.696;23.354;2023-02-02T09:03:47;8.50;;;5.17;;
7833;SDS011;3962;42.696;23.354;2023-02-02T09:06:18;13.90;;;6.50;;
7833;SDS011;3962;42.696;23.354;2023-02-02T09:08:54;12.60;;;7.50;;
7833;SDS011;3962;42.696;23.354;2023-02-02T09:11:21;10.63;;;6.37;;
7833;SDS011;3962;42.696;23.354;2023-02-02T09:13:51;11.63;;;6.20;;
7833;SDS011;3962;42.696;23.354;2023-02-02T09:16:19;12.17;;;5.80;;
7833;SDS011;3962;42.696;23.354;2023-02-02T09:18:47;12.87;;;6.27;;
7833;SDS011;3962;42.696;23.354;2023-02-02T09:21:15;11.27;;;5.43;;
7833;SDS011;3962;42.696;23.354;2023-02-02T09:23:43;9.53;;;6.00;;
7833;SDS011;3962;42.696;23.354;2023-02-02T09:26:11;8.67;;;4.53;;
7833;SDS011;3962;42.696;23.354;2023-02-02T09:28:40;15.17;;;5.03;;
7833;SDS011;3962;42.696;23.354;2023-02-02T09:31:08;12.80;;;5.63;;
7833;SDS011;3962;42.696;23.354;2023-02-02T09:33:35;26.67;;;11.87;;
7833;SDS011;3962;42.696;23.354;2023-02-02T09:36:05;8.70;;;5.43;;
7833;SDS011;3962;42.696;23.354;2023-02-02T09:38:32;8.80;;;5.00;;
7833;SDS011;3962;42.696;23.354;2023-02-02T09:41:00;10.53;;;5.00;;
7833;SDS011;3962;42.696;23.354;2023-02-02T09:43:41;10.43;;;4.27;;
7833;SDS011;3962;42.696;23.354;2023-02-02T09:46:16;17.33;;;7.30;;
7833;SDS011;3962;42.696;23.354;2023-02-02T09:48:52;5.33;;;4.03;;
7833;SDS011;3962;42.696;23.354;2023-02-02T09:51:26;6.07;;;4.37;;
7833;SDS011;3962;42.696;23.354;2023-02-02T09:54:00;9.83;;;5.63;;
7833;SDS011;3962;42.696;23.354;2023-02-02T09:56:36;7.70;;;5.77;;
7833;SDS011;3962;42.696;23.354;2023-02-02T09:59:10;12.40;;;6.37;;
7833;SDS011;3962;42.696;23.354;2023-02-02T10:01:42;9.10;;;4.83;;
7833;SDS011;3962;42.696;23.354;2023-02-02T10:04:12;6.60;;;4.53;;
7833;SDS011;3962;42.696;23.354;2023-02-02T10:06:45;10.03;;;6.00;;
7833;SDS011;3962;42.696;23.354;2023-02-02T10:09:18;9.90;;;5.50;;
7833;SDS011;3962;42.696;23.354;2023-02-02T10:11:55;11.27;;;5.07;;
7833;SDS011;3962;42.696;23.354;2023-02-02T10:14:30;7.00;;;4.70;;
7833;SDS011;3962;42.696;23.354;2023-02-02T10:17:02;7.50;;;5.20;;
7833;SDS011;3962;42.696;23.354;2023-02-02T10:19:43;8.33;;;4.37;;
7833;SDS011;3962;42.696;23.354;2023-02-02T10:22:13;12.67;;;4.20;;
7833;SDS011;3962;42.696;23.354;2023-02-02T10:24:45;7.93;;;3.73;;
7833;SDS011;3962;42.696;23.354;2023-02-02T10:27:12;8.23;;;4.70;;
7833;SDS011;3962;42.696;23.354;2023-02-02T10:29:43;4.90;;;3.20;;
7833;SDS011;3962;42.696;23.354;2023-02-02T10:32:19;9.53;;;5.20;;
7833;SDS011;3962;42.696;23.354;2023-02-02T10:34:59;6.93;;;3.93;;
7833;SDS011;3962;42.696;23.354;2023-02-02T10:37:39;9.83;;;4.67;;
7833;SDS011;3962;42.696;23.354;2023-02-02T10:40:17;6.57;;;3.73;;
7833;SDS011;3962;42.696;23.354;2023-02-02T10:42:55;9.23;;;4.77;;
7833;SDS011;3962;42.696;23.354;2023-02-02T10:45:52;4.50;;;3.27;;
7833;SDS011;3962;42.696;23.354;2023-02-02T10:48:21;7.77;;;4.30;;
7833;SDS011;3962;42.696;23.354;2023-02-02T10:50:54;3.80;;;2.93;;
7833;SDS011;3962;42.696;23.354;2023-02-02T10:53:26;6.77;;;3.80;;
7833;SDS011;3962;42.696;23.354;2023-02-02T10:55:55;7.80;;;3.63;;
7833;SDS011;3962;42.696;23.354;2023-02-02T10:58:26;9.60;;;3.40;;
7833;SDS011;3962;42.696;23.354;2023-02-02T11:00:57;4.43;;;3.10;;
7833;SDS011;3962;42.696;23.354;2023-02-02T11:03:26;7.30;;;3.87;;
7833;SDS011;3962;42.696;23.354;2023-02-02T11:05:55;5.50;;;3.07;;
7833;SDS011;3962;42.696;23.354;2023-02-02T11:08:43;6.37;;;3.23;;
7833;SDS011;3962;42.696;23.354;2023-02-02T11:11:11;8.73;;;3.73;;
7833;SDS011;3962;42.696;23.354;2023-02-02T11:13:44;6.90;;;3.03;;
7833;SDS011;3962;42.696;23.354;2023-02-02T11:16:23;8.33;;;3.93;;
7833;SDS011;3962;42.696;23.354;2023-02-02T11:18:52;5.50;;;3.63;;
7833;SDS011;3962;42.696;23.354;2023-02-02T11:21:20;9.07;;;3.43;;
7833;SDS011;3962;42.696;23.354;2023-02-02T11:23:55;7.57;;;3.70;;
7833;SDS011;3962;42.696;23.354;2023-02-02T11:26:26;9.80;;;3.50;;
7833;SDS011;3962;42.696;23.354;2023-02-02T11:29:11;6.07;;;3.80;;
7833;SDS011;3962;42.696;23.354;2023-02-02T11:31:40;6.27;;;3.13;;
7833;SDS011;3962;42.696;23.354;2023-02-02T11:34:14;7.30;;;2.47;;
7833;SDS011;3962;42.696;23.354;2023-02-02T11:39:39;5.97;;;2.50;;
7833;SDS011;3962;42.696;23.354;2023-02-02T11:42:07;5.40;;;3.40;;
7833;SDS011;3962;42.696;23.354;2023-02-02T11:44:41;11.23;;;3.57;;
7833;SDS011;3962;42.696;23.354;2023-02-02T11:47:15;5.73;;;3.30;;
7833;SDS011;3962;42.696;23.354;2023-02-02T11:49:46;9.23;;;3.10;;
7833;SDS011;3962;42.696;23.354;2023-02-02T11:52:17;7.37;;;3.07;;
7833;SDS011;3962;42.696;23.354;2023-02-02T11:54:48;9.63;;;2.77;;
7833;SDS011;3962;42.696;23.354;2023-02-02T11:57:17;6.23;;;3.23;;
7833;SDS011;3962;42.696;23.354;2023-02-02T11:59:46;8.47;;;3.57;;
7833;SDS011;3962;42.696;23.354;2023-02-02T12:02:24;6.97;;;3.77;;
7833;SDS011;3962;42.696;23.354;2023-02-02T12:04:53;8.77;;;3.40;;
7833;SDS011;3962;42.696;23.354;2023-02-02T12:07:25;8.27;;;3.17;;
7833;SDS011;3962;42.696;23.354;2023-02-02T12:09:56;7.17;;;3.13;;
7833;SDS011;3962;42.696;23.354;2023-02-02T12:12:30;9.77;;;3.60;;
7833;SDS011;3962;42.696;23.354;2023-02-02T12:15:10;7.83;;;3.60;;
7833;SDS011;3962;42.696;23.354;2023-02-02T12:17:49;5.97;;;3.23;;
7833;SDS011;3962;42.696;23.354;2023-02-02T12:20:25;10.20;;;3.53;;
7833;SDS011;3962;42.696;23.354;2023-02-02T12:23:08;7.80;;;3.17;;
7833;SDS011;3962;42.696;23.354;2023-02-02T12:25:52;5.88;;;3.47;;
7833;SDS011;3962;42.696;23.354;2023-02-02T12:28:38;7.67;;;3.67;;
7833;SDS011;3962;42.696;23.354;2023-02-02T12:31:19;4.50;;;3.10;;
7833;SDS011;3962;42.696;23.354;2023-02-02T12:33:54;5.80;;;3.73;;
7833;SDS011;3962;42.696;23.354;2023-02-02T12:36:31;7.40;;;3.70;;
7833;SDS011;3962;42.696;23.354;2023-02-02T12:39:12;4.80;;;3.53;;
7833;SDS011;3962;42.696;23.354;2023-02-02T12:41:59;6.77;;;3.13;;
7833;SDS011;3962;42.696;23.354;2023-02-02T12:44:48;5.17;;;2.93;;
7833;SDS011;3962;42.696;23.354;2023-02-02T12:47:25;4.23;;;3.10;;
7833;SDS011;3962;42.696;23.354;2023-02-02T12:50:02;9.27;;;3.93;;
7833;SDS011;3962;42.696;23.354;2023-02-02T12:52:42;8.23;;;3.40;;
7833;SDS011;3962;42.696;23.354;2023-02-02T12:55:21;3.60;;;3.10;;
7833;SDS011;3962;42.696;23.354;2023-02-02T12:57:58;7.93;;;3.47;;
7833;SDS011;3962;42.696;23.354;2023-02-02T13:00:34;6.27;;;2.67;;
7833;SDS011;3962;42.696;23.354;2023-02-02T13:03:21;4.47;;;2.90;;
7833;SDS011;3962;42.696;23.354;2023-02-02T13:06:08;5.03;;;3.00;;
7833;SDS011;3962;42.696;23.354;2023-02-02T13:09:08;9.13;;;4.10;;
7833;SDS011;3962;42.696;23.354;2023-02-02T13:11:40;5.40;;;2.73;;
7833;SDS011;3962;42.696;23.354;2023-02-02T13:14:16;3.77;;;2.93;;
7833;SDS011;3962;42.696;23.354;2023-02-02T13:16:50;5.73;;;3.40;;
7833;SDS011;3962;42.696;23.354;2023-02-02T13:19:23;18.03;;;10.23;;
7833;SDS011;3962;42.696;23.354;2023-02-02T13:21:54;5.67;;;3.50;;
7833;SDS011;3962;42.696;23.354;2023-02-02T13:24:25;5.30;;;3.60;;
7833;SDS011;3962;42.696;23.354;2023-02-02T13:26:55;3.83;;;2.93;;
7833;SDS011;3962;42.696;23.354;2023-02-02T13:29:29;8.50;;;3.73;;
7833;SDS011;3962;42.696;23.354;2023-02-02T13:32:02;5.80;;;3.10;;
7833;SDS011;3962;42.696;23.354;2023-02-02T13:34:36;6.47;;;3.10;;
7833;SDS011;3962;42.696;23.354;2023-02-02T13:37:10;6.77;;;3.50;;
7833;SDS011;3962;42.696;23.354;2023-02-02T13:39:43;5.80;;;3.10;;
7833;SDS011;3962;42.696;23.354;2023-02-02T13:42:19;4.87;;;2.83;;
7833;SDS011;3962;42.696;23.354;2023-02-02T13:44:54;4.70;;;2.87;;
7833;SDS011;3962;42.696;23.354;2023-02-02T13:47:25;5.20;;;2.60;;
7833;SDS011;3962;42.696;23.354;2023-02-02T13:50:00;3.50;;;2.53;;
7833;SDS011;3962;42.696;23.354;2023-02-02T13:52:39;6.70;;;2.97;;
7833;SDS011;3962;42.696;23.354;2023-02-02T13:55:27;4.10;;;2.53;;
7833;SDS011;3962;42.696;23.354;2023-02-02T14:01:05;5.90;;;2.93;;
7833;SDS011;3962;42.696;23.354;2023-02-02T14:03:36;2.83;;;2.50;;
7833;SDS011;3962;42.696;23.354;2023-02-02T14:06:06;5.00;;;2.97;;
7833;SDS011;3962;42.696;23.354;2023-02-02T14:08:42;5.27;;;2.97;;
7833;SDS011;3962;42.696;23.354;2023-02-02T14:11:20;3.93;;;2.90;;
7833;SDS011;3962;42.696;23.354;2023-02-02T14:13:50;5.37;;;2.70;;
7833;SDS011;3962;42.696;23.354;2023-02-02T14:16:43;5.83;;;2.90;;
7833;SDS011;3962;42.696;23.354;2023-02-02T14:19:13;5.27;;;2.53;;
7833;SDS011;3962;42.696;23.354;2023-02-02T14:21:57;3.77;;;2.80;;
7833;SDS011;3962;42.696;23.354;2023-02-02T14:24:42;5.63;;;2.60;;
7833;SDS011;3962;42.696;23.354;2023-02-02T14:30:21;2.60;;;2.40;;
7833;SDS011;3962;42.696;23.354;2023-02-02T14:33:18;4.00;;;2.80;;
7833;SDS011;3962;42.696;23.354;2023-02-02T14:35:57;3.30;;;2.60;;
7833;SDS011;3962;42.696;23.354;2023-02-02T14:41:23;6.50;;;3.67;;
7833;SDS011;3962;42.696;23.354;2023-02-02T14:44:17;6.60;;;4.23;;
7833;SDS011;3962;42.696;23.354;2023-02-02T14:46:43;5.87;;;3.80;;
7833;SDS011;3962;42.696;23.354;2023-02-02T14:49:15;6.57;;;4.60;;
7833;SDS011;3962;42.696;23.354;2023-02-02T14:51:51;11.23;;;6.77;;
7833;SDS011;3962;42.696;23.354;2023-02-02T14:54:22;8.40;;;6.40;;
7833;SDS011;3962;42.696;23.354;2023-02-02T14:56:54;8.57;;;5.77;;
7833;SDS011;3962;42.696;23.354;2023-02-02T14:59:25;9.80;;;5.00;;
7833;SDS011;3962;42.696;23.354;2023-02-02T15:01:55;7.37;;;4.40;;
7833;SDS011;3962;42.696;23.354;2023-02-02T15:04:28;8.70;;;5.03;;
7833;SDS011;3962;42.696;23.354;2023-02-02T15:06:55;10.40;;;5.33;;
7833;SDS011;3962;42.696;23.354;2023-02-02T15:10:00;7.97;;;5.40;;
7833;SDS011;3962;42.696;23.354;2023-02-02T15:12:31;8.00;;;5.50;;
7833;SDS011;3962;42.696;23.354;2023-02-02T15:15:15;7.10;;;5.13;;
7833;SDS011;3962;42.696;23.354;2023-02-02T15:17:55;10.90;;;6.77;;
7833;SDS011;3962;42.696;23.354;2023-02-02T15:20:33;8.50;;;5.37;;
7833;SDS011;3962;42.696;23.354;2023-02-02T15:23:06;8.67;;;5.30;;
7833;SDS011;3962;42.696;23.354;2023-02-02T15:25:44;7.03;;;6.23;;
7833;SDS011;3962;42.696;23.354;2023-02-02T15:28:16;7.13;;;6.33;;
7833;SDS011;3962;42.696;23.354;2023-02-02T15:30:48;5.10;;;4.50;;
7833;SDS011;3962;42.696;23.354;2023-02-02T15:33:23;3.60;;;3.20;;
7833;SDS011;3962;42.696;23.354;2023-02-02T15:35:56;2.97;;;2.73;;